Santa Maria Pub/Capt G Allan Hancock Field
KSMX : now visible

Airfield :











YOU CAN JOIN US ON...

 
LOGIN :

Register | Disclaimer

   EN    FR    IT 

 









Legend :    VFR   Marginal VFR   IFR   Intensive IFR   Very Intensive IFR
Visi :
Ceiling :
>= 8 km
>= 3000ft
5 to 8 km
1000 to 3000 ft
1500m to 5 km
500 to 1000 ft
800 to 1500m
200 to 500 ft
< 800m
< 200 ft
Symbols :   Thunderstorms  Fog  Heavy snow  Heavy precipitations  Wind > 20 kt






- Airport Elevation : 261 ft
- IATA code : SMX


KSMX - Santa Maria Pub/Capt G Allan Hancock Field

CURRENT METAR :
  • 022351Z 31021G28KT 10SM R12/4500VP6000FT BLDU CLR 16/07 A2999 RMK AO2 PK WND 30030/2308 SLP159 T01560067 10211 20156 58001

EXPIRED METARs :
  • 022251Z 30023G30KT 10SM R12/4500VP6000FT BLDU CLR 17/05 A2999 RMK AO2 PK WND 30030/2246 SLP159 T01670050

TAF KSMX
Valid from the 03 at 00:00 until the 04 at 00:00 UTC


030005Z 0300/0324 30019G29KT P6SM SKC
FM030200 30012G18KT P6SM SKC
FM030400 30008KT P6SM SKC
FM030700 VRB03KT P6SM SKC
FM031500 32006KT P6SM SKC
FM031800 30012KT P6SM SKC
FM032000 30018G28KT P6SM SKC



MET'MAP, your aeronautical weather chart ! - Copyright ORBIFLY December 2007 - Disclaimer

ORBIFLY MET'MAP TEAM :

Programming & Development : Alexandra Zaïnal
Concept & original design : Baudouin d'Aumeries
Assistance for programming : Marc-Olivier Méhu
Technical & hardware support : Manuel Goepfert

Contact : metmap@orbifly.com




SOURCES & CREDITS :

   NOAA       Earth
Advisory